sensor_id;sensor_type;location;lat;lon;timestamp;pressure;altitude;pressure_sealevel;temperature;humidity
59110;BME280;44895;47.438;18.978;2023-04-08T00:00:40;100275.16;;;5.29;100.00
59110;BME280;44895;47.438;18.978;2023-04-08T00:03:43;100277.09;;;5.33;100.00
59110;BME280;44895;47.438;18.978;2023-04-08T00:06:47;100266.88;;;5.35;100.00
59110;BME280;44895;47.438;18.978;2023-04-08T00:09:51;100270.78;;;5.22;100.00
59110;BME280;44895;47.438;18.978;2023-04-08T00:12:54;100271.78;;;4.89;100.00
59110;BME280;44895;47.438;18.978;2023-04-08T00:15:58;100271.47;;;5.13;100.00
59110;BME280;44895;47.438;18.978;2023-04-08T00:19:01;100276.69;;;4.97;100.00
59110;BME280;44895;47.438;18.978;2023-04-08T00:22:05;100275.31;;;4.95;100.00
59110;BME280;44895;47.438;18.978;2023-04-08T00:25:09;100278.91;;;4.78;100.00
59110;BME280;44895;47.438;18.978;2023-04-08T00:28:12;100273.31;;;5.07;100.00
59110;BME280;44895;47.438;18.978;2023-04-08T00:31:16;100285.09;;;5.01;100.00
59110;BME280;44895;47.438;18.978;2023-04-08T00:34:20;100277.88;;;5.06;100.00
59110;BME280;44895;47.438;18.978;2023-04-08T00:37:23;100279.50;;;5.07;100.00
59110;BME280;44895;47.438;18.978;2023-04-08T00:40:27;100284.66;;;4.87;100.00
59110;BME280;44895;47.438;18.978;2023-04-08T00:43:31;100285.34;;;4.99;100.00
59110;BME280;44895;47.438;18.978;2023-04-08T00:46:35;100276.31;;;5.11;100.00
59110;BME280;44895;47.438;18.978;2023-04-08T00:49:39;100284.16;;;5.12;100.00
59110;BME280;44895;47.438;18.978;2023-04-08T00:52:42;100283.41;;;5.17;100.00
59110;BME280;44895;47.438;18.978;2023-04-08T00:55:46;100278.88;;;5.22;100.00
59110;BME280;44895;47.438;18.978;2023-04-08T00:58:50;100286.38;;;5.20;100.00
59110;BME280;44895;47.438;18.978;2023-04-08T01:02:12;100274.22;;;5.18;100.00
59110;BME280;44895;47.438;18.978;2023-04-08T01:05:25;100283.41;;;5.17;100.00
59110;BME280;44895;47.438;18.978;2023-04-08T01:08:31;100284.25;;;5.22;100.00
59110;BME280;44895;47.438;18.978;2023-04-08T01:11:36;100278.16;;;4.83;100.00
59110;BME280;44895;47.438;18.978;2023-04-08T01:14:41;100280.13;;;4.93;100.00
59110;BME280;44895;47.438;18.978;2023-04-08T01:17:46;100279.19;;;5.04;100.00
59110;BME280;44895;47.438;18.978;2023-04-08T01:20:50;100285.41;;;5.04;100.00
59110;BME280;44895;47.438;18.978;2023-04-08T01:24:05;100279.38;;;4.97;100.00
59110;BME280;44895;47.438;18.978;2023-04-08T01:27:10;100281.44;;;5.12;100.00
59110;BME280;44895;47.438;18.978;2023-04-08T01:30:16;100279.63;;;5.18;100.00
59110;BME280;44895;47.438;18.978;2023-04-08T01:33:20;100283.78;;;5.03;100.00
59110;BME280;44895;47.438;18.978;2023-04-08T01:36:24;100290.22;;;4.80;100.00
59110;BME280;44895;47.438;18.978;2023-04-08T01:39:28;100285.28;;;4.94;100.00
59110;BME280;44895;47.438;18.978;2023-04-08T01:42:33;100292.53;;;4.94;100.00
59110;BME280;44895;47.438;18.978;2023-04-08T01:45:37;100275.22;;;4.84;100.00
59110;BME280;44895;47.438;18.978;2023-04-08T01:48:41;100278.75;;;4.90;100.00
59110;BME280;44895;47.438;18.978;2023-04-08T01:51:45;100278.09;;;4.78;100.00
59110;BME280;44895;47.438;18.978;2023-04-08T01:54:50;100274.06;;;4.58;100.00
59110;BME280;44895;47.438;18.978;2023-04-08T01:57:54;100280.16;;;4.70;100.00
59110;BME280;44895;47.438;18.978;2023-04-08T02:01:00;100271.63;;;5.01;100.00
59110;BME280;44895;47.438;18.978;2023-04-08T02:04:04;100273.00;;;4.81;100.00
59110;BME280;44895;47.438;18.978;2023-04-08T02:07:08;100270.31;;;4.81;100.00
59110;BME280;44895;47.438;18.978;2023-04-08T02:10:11;100274.19;;;4.68;100.00
59110;BME280;44895;47.438;18.978;2023-04-08T02:13:15;100279.22;;;4.82;100.00
59110;BME280;44895;47.438;18.978;2023-04-08T02:19:38;100274.09;;;4.80;100.00
59110;BME280;44895;47.438;18.978;2023-04-08T02:22:59;100283.22;;;4.79;100.00
59110;BME280;44895;47.438;18.978;2023-04-08T02:26:06;100277.63;;;4.86;100.00
59110;BME280;44895;47.438;18.978;2023-04-08T02:29:12;100279.84;;;4.89;100.00
59110;BME280;44895;47.438;18.978;2023-04-08T02:32:18;100279.81;;;4.67;100.00
59110;BME280;44895;47.438;18.978;2023-04-08T02:35:22;100282.66;;;4.77;100.00
59110;BME280;44895;47.438;18.978;2023-04-08T02:38:26;100275.16;;;4.79;100.00
59110;BME280;44895;47.438;18.978;2023-04-08T02:41:32;100272.94;;;4.76;100.00
59110;BME280;44895;47.438;18.978;2023-04-08T02:44:35;100267.94;;;4.85;100.00
59110;BME280;44895;47.438;18.978;2023-04-08T02:47:40;100268.56;;;4.92;100.00
59110;BME280;44895;47.438;18.978;2023-04-08T02:50:43;100265.19;;;5.02;100.00
59110;BME280;44895;47.438;18.978;2023-04-08T02:53:47;100274.81;;;4.98;100.00
59110;BME280;44895;47.438;18.978;2023-04-08T02:56:50;100274.13;;;4.63;100.00
59110;BME280;44895;47.438;18.978;2023-04-08T02:59:54;100276.19;;;4.78;100.00
59110;BME280;44895;47.438;18.978;2023-04-08T03:02:58;100278.63;;;4.57;100.00
59110;BME280;44895;47.438;18.978;2023-04-08T03:06:02;100275.78;;;4.86;100.00
59110;BME280;44895;47.438;18.978;2023-04-08T03:09:05;100271.50;;;4.90;100.00
59110;BME280;44895;47.438;18.978;2023-04-08T03:12:09;100275.22;;;4.84;100.00
59110;BME280;44895;47.438;18.978;2023-04-08T03:15:13;100278.00;;;4.95;100.00
59110;BME280;44895;47.438;18.978;2023-04-08T03:18:17;100278.28;;;4.93;100.00
59110;BME280;44895;47.438;18.978;2023-04-08T03:21:20;100277.88;;;4.62;100.00
59110;BME280;44895;47.438;18.978;2023-04-08T03:24:24;100281.97;;;4.87;100.00
59110;BME280;44895;47.438;18.978;2023-04-08T03:27:28;100279.56;;;4.68;100.00
59110;BME280;44895;47.438;18.978;2023-04-08T03:30:31;100280.28;;;4.81;100.00
59110;BME280;44895;47.438;18.978;2023-04-08T03:33:35;100283.97;;;4.74;100.00
59110;BME280;44895;47.438;18.978;2023-04-08T03:36:39;100283.03;;;4.64;100.00
59110;BME280;44895;47.438;18.978;2023-04-08T03:39:43;100290.53;;;4.62;100.00
59110;BME280;44895;47.438;18.978;2023-04-08T03:42:46;100288.38;;;4.41;100.00
59110;BME280;44895;47.438;18.978;2023-04-08T03:45:50;100294.78;;;4.57;100.00
59110;BME280;44895;47.438;18.978;2023-04-08T03:48:53;100296.41;;;4.81;100.00
59110;BME280;44895;47.438;18.978;2023-04-08T03:51:57;100296.09;;;4.77;100.00
59110;BME280;44895;47.438;18.978;2023-04-08T03:55:00;100303.81;;;4.90;100.00
59110;BME280;44895;47.438;18.978;2023-04-08T03:58:04;100303.56;;;4.92;100.00
59110;BME280;44895;47.438;18.978;2023-04-08T04:01:08;100298.50;;;4.96;100.00
59110;BME280;44895;47.438;18.978;2023-04-08T04:04:11;100309.94;;;4.86;100.00
59110;BME280;44895;47.438;18.978;2023-04-08T04:07:15;100313.59;;;4.97;100.00
59110;BME280;44895;47.438;18.978;2023-04-08T04:10:19;100309.63;;;4.82;100.00
59110;BME280;44895;47.438;18.978;2023-04-08T04:13:22;100318.97;;;4.97;100.00
59110;BME280;44895;47.438;18.978;2023-04-08T04:16:26;100319.25;;;4.78;100.00
59110;BME280;44895;47.438;18.978;2023-04-08T04:19:30;100323.00;;;4.77;100.00
59110;BME280;44895;47.438;18.978;2023-04-08T04:22:34;100319.31;;;4.83;100.00
59110;BME280;44895;47.438;18.978;2023-04-08T04:25:40;100321.44;;;4.81;100.00
59110;BME280;44895;47.438;18.978;2023-04-08T04:28:43;100325.28;;;4.85;100.00
59110;BME280;44895;47.438;18.978;2023-04-08T04:31:47;100324.50;;;4.90;100.00
59110;BME280;44895;47.438;18.978;2023-04-08T04:34:51;100325.63;;;4.72;100.00
59110;BME280;44895;47.438;18.978;2023-04-08T04:37:54;100327.94;;;4.63;100.00
59110;BME280;44895;47.438;18.978;2023-04-08T04:40:57;100328.84;;;4.69;100.00
59110;BME280;44895;47.438;18.978;2023-04-08T04:44:01;100328.84;;;4.69;100.00
59110;BME280;44895;47.438;18.978;2023-04-08T04:47:04;100326.66;;;4.49;100.00
59110;BME280;44895;47.438;18.978;2023-04-08T04:50:08;100328.84;;;4.69;100.00
59110;BME280;44895;47.438;18.978;2023-04-08T04:53:11;100324.22;;;4.86;100.00
59110;BME280;44895;47.438;18.978;2023-04-08T04:56:14;100331.97;;;4.83;100.00
59110;BME280;44895;47.438;18.978;2023-04-08T04:59:18;100337.72;;;4.69;100.00
59110;BME280;44895;47.438;18.978;2023-04-08T05:02:22;100336.66;;;4.93;100.00
59110;BME280;44895;47.438;18.978;2023-04-08T05:05:25;100339.53;;;4.86;100.00
59110;BME280;44895;47.438;18.978;2023-04-08T05:08:29;100333.97;;;4.93;100.00
59110;BME280;44895;47.438;18.978;2023-04-08T05:11:32;100339.66;;;4.74;100.00
59110;BME280;44895;47.438;18.978;2023-04-08T05:14:36;100344.28;;;4.79;100.00
59110;BME280;44895;47.438;18.978;2023-04-08T05:17:39;100345.66;;;4.81;100.00
59110;BME280;44895;47.438;18.978;2023-04-08T05:20:43;100345.66;;;4.81;100.00
59110;BME280;44895;47.438;18.978;2023-04-08T05:23:47;100348.06;;;4.78;100.00
59110;BME280;44895;47.438;18.978;2023-04-08T05:26:50;100347.28;;;4.82;100.00
59110;BME280;44895;47.438;18.978;2023-04-08T05:29:55;100351.03;;;4.81;100.00
59110;BME280;44895;47.438;18.978;2023-04-08T05:32:58;100358.19;;;4.53;100.00
59110;BME280;44895;47.438;18.978;2023-04-08T05:36:02;100364.38;;;4.71;100.00
59110;BME280;44895;47.438;18.978;2023-04-08T05:39:06;100363.63;;;4.76;100.00
59110;BME280;44895;47.438;18.978;2023-04-08T05:42:10;100366.59;;;4.57;100.00
59110;BME280;44895;47.438;18.978;2023-04-08T05:45:15;100370.50;;;4.49;100.00
59110;BME280;44895;47.438;18.978;2023-04-08T05:48:18;100373.28;;;4.54;100.00
59110;BME280;44895;47.438;18.978;2023-04-08T05:51:22;100375.72;;;4.56;100.00
59110;BME280;44895;47.438;18.978;2023-04-08T05:54:25;100368.97;;;4.93;100.00
59110;BME280;44895;47.438;18.978;2023-04-08T05:57:29;100378.28;;;4.85;100.00
59110;BME280;44895;47.438;18.978;2023-04-08T06:00:33;100381.41;;;4.60;100.00
59110;BME280;44895;47.438;18.978;2023-04-08T06:03:36;100380.28;;;4.55;100.00
59110;BME280;44895;47.438;18.978;2023-04-08T06:06:40;100383.91;;;4.83;100.00
59110;BME280;44895;47.438;18.978;2023-04-08T06:09:44;100382.41;;;4.70;100.00
59110;BME280;44895;47.438;18.978;2023-04-08T06:12:47;100379.25;;;4.79;100.00
59110;BME280;44895;47.438;18.978;2023-04-08T06:15:51;100385.75;;;4.61;100.00
59110;BME280;44895;47.438;18.978;2023-04-08T06:18:55;100382.00;;;4.62;100.00
59110;BME280;44895;47.438;18.978;2023-04-08T06:21:59;100388.25;;;4.67;100.00
59110;BME280;44895;47.438;18.978;2023-04-08T06:25:02;100389.47;;;4.77;100.00
59110;BME280;44895;47.438;18.978;2023-04-08T06:28:06;100391.13;;;4.78;100.00
59110;BME280;44895;47.438;18.978;2023-04-08T06:31:09;100395.97;;;4.59;100.00
59110;BME280;44895;47.438;18.978;2023-04-08T06:34:13;100397.72;;;4.53;100.00
59110;BME280;44895;47.438;18.978;2023-04-08T06:37:17;100395.53;;;4.67;100.00
59110;BME280;44895;47.438;18.978;2023-04-08T06:40:20;100399.34;;;4.71;100.00
59110;BME280;44895;47.438;18.978;2023-04-08T06:43:24;100404.91;;;5.03;100.00
59110;BME280;44895;47.438;18.978;2023-04-08T06:46:28;100402.88;;;4.54;100.00
59110;BME280;44895;47.438;18.978;2023-04-08T06:49:32;100407.91;;;4.51;100.00
59110;BME280;44895;47.438;18.978;2023-04-08T06:52:35;100413.94;;;4.58;100.00
59110;BME280;44895;47.438;18.978;2023-04-08T06:55:39;100411.16;;;4.87;100.00
59110;BME280;44895;47.438;18.978;2023-04-08T06:58:42;100413.00;;;4.47;100.00
59110;BME280;44895;47.438;18.978;2023-04-08T07:01:46;100407.66;;;4.86;100.00
59110;BME280;44895;47.438;18.978;2023-04-08T07:04:50;100416.78;;;4.68;100.00
59110;BME280;44895;47.438;18.978;2023-04-08T07:07:53;100422.19;;;4.68;100.00
59110;BME280;44895;47.438;18.978;2023-04-08T07:10:57;100422.28;;;4.56;100.00
59110;BME280;44895;47.438;18.978;2023-04-08T07:14:00;100420.25;;;4.64;100.00
59110;BME280;44895;47.438;18.978;2023-04-08T07:17:04;100419.97;;;4.82;100.00
59110;BME280;44895;47.438;18.978;2023-04-08T07:20:08;100424.34;;;4.88;100.00
59110;BME280;44895;47.438;18.978;2023-04-08T07:23:12;100431.81;;;4.64;100.00
59110;BME280;44895;47.438;18.978;2023-04-08T07:26:15;100440.06;;;4.57;100.00
59110;BME280;44895;47.438;18.978;2023-04-08T07:29:19;100441.78;;;4.64;100.00
59110;BME280;44895;47.438;18.978;2023-04-08T07:32:22;100442.56;;;4.64;100.00
59110;BME280;44895;47.438;18.978;2023-04-08T07:35:26;100449.16;;;4.39;100.00
59110;BME280;44895;47.438;18.978;2023-04-08T07:38:30;100452.84;;;4.33;100.00
59110;BME280;44895;47.438;18.978;2023-04-08T07:41:33;100451.03;;;4.56;100.00
59110;BME280;44895;47.438;18.978;2023-04-08T07:44:36;100455.38;;;4.74;100.00
59110;BME280;44895;47.438;18.978;2023-04-08T07:47:40;100463.44;;;4.40;100.00
59110;BME280;44895;47.438;18.978;2023-04-08T07:50:44;100464.41;;;4.51;100.00
59110;BME280;44895;47.438;18.978;2023-04-08T07:53:48;100463.59;;;4.50;100.00
59110;BME280;44895;47.438;18.978;2023-04-08T07:56:52;100468.47;;;4.87;100.00
59110;BME280;44895;47.438;18.978;2023-04-08T07:59:55;100468.41;;;4.82;100.00
59110;BME280;44895;47.438;18.978;2023-04-08T08:02:59;100465.00;;;4.87;100.00
59110;BME280;44895;47.438;18.978;2023-04-08T08:06:02;100464.59;;;4.78;100.00
59110;BME280;44895;47.438;18.978;2023-04-08T08:09:06;100463.25;;;4.30;100.00
59110;BME280;44895;47.438;18.978;2023-04-08T08:12:09;100467.50;;;4.60;100.00
59110;BME280;44895;47.438;18.978;2023-04-08T08:15:13;100468.41;;;4.99;100.00
59110;BME280;44895;47.438;18.978;2023-04-08T08:18:17;100475.75;;;4.53;100.00
59110;BME280;44895;47.438;18.978;2023-04-08T08:21:20;100475.84;;;4.75;100.00
59110;BME280;44895;47.438;18.978;2023-04-08T08:24:24;100472.16;;;4.98;100.00
59110;BME280;44895;47.438;18.978;2023-04-08T08:27:28;100476.47;;;4.99;100.00
59110;BME280;44895;47.438;18.978;2023-04-08T08:30:32;100474.41;;;5.23;100.00
59110;BME280;44895;47.438;18.978;2023-04-08T08:33:36;100479.84;;;5.29;100.00
59110;BME280;44895;47.438;18.978;2023-04-08T08:36:39;100483.56;;;4.88;100.00
59110;BME280;44895;47.438;18.978;2023-04-08T08:39:43;100487.06;;;5.06;100.00
59110;BME280;44895;47.438;18.978;2023-04-08T08:42:50;100481.66;;;5.23;100.00
59110;BME280;44895;47.438;18.978;2023-04-08T08:45:54;100488.78;;;5.12;100.00
59110;BME280;44895;47.438;18.978;2023-04-08T08:48:58;100487.47;;;4.98;100.00
59110;BME280;44895;47.438;18.978;2023-04-08T08:52:01;100490.91;;;5.10;100.00
59110;BME280;44895;47.438;18.978;2023-04-08T08:55:05;100493.53;;;5.44;100.00
59110;BME280;44895;47.438;18.978;2023-04-08T08:58:09;100507.47;;;5.02;100.00
59110;BME280;44895;47.438;18.978;2023-04-08T09:01:28;100497.81;;;5.23;100.00
59110;BME280;44895;47.438;18.978;2023-04-08T09:04:32;100513.03;;;4.78;100.00
59110;BME280;44895;47.438;18.978;2023-04-08T09:07:37;100507.13;;;5.15;100.00
59110;BME280;44895;47.438;18.978;2023-04-08T09:10:42;100507.47;;;5.02;100.00
59110;BME280;44895;47.438;18.978;2023-04-08T09:13:46;100521.16;;;5.17;100.00
59110;BME280;44895;47.438;18.978;2023-04-08T09:16:50;100519.16;;;4.90;100.00
59110;BME280;44895;47.438;18.978;2023-04-08T09:20:07;100521.28;;;5.05;100.00
59110;BME280;44895;47.438;18.978;2023-04-08T09:23:14;100514.41;;;4.98;100.00
59110;BME280;44895;47.438;18.978;2023-04-08T09:26:19;100517.91;;;5.15;100.00
59110;BME280;44895;47.438;18.978;2023-04-08T09:29:24;100526.31;;;5.02;100.00
59110;BME280;44895;47.438;18.978;2023-04-08T09:32:52;100525.13;;;5.49;100.00
59110;BME280;44895;47.438;18.978;2023-04-08T09:35:54;100528.19;;;5.18;100.00
59110;BME280;44895;47.438;18.978;2023-04-08T09:38:58;100529.06;;;5.24;100.00
59110;BME280;44895;47.438;18.978;2023-04-08T09:42:01;100526.44;;;5.29;100.00
59110;BME280;44895;47.438;18.978;2023-04-08T09:45:09;100532.94;;;4.94;100.00
59110;BME280;44895;47.438;18.978;2023-04-08T09:48:16;100532.84;;;5.06;100.00
59110;BME280;44895;47.438;18.978;2023-04-08T09:51:21;100532.59;;;5.25;100.00
59110;BME280;44895;47.438;18.978;2023-04-08T09:55:12;100542.91;;;5.50;100.00
59110;BME280;44895;47.438;18.978;2023-04-08T10:00:56;100538.22;;;5.06;100.00
59110;BME280;44895;47.438;18.978;2023-04-08T10:04:00;100538.84;;;5.30;100.00
59110;BME280;44895;47.438;18.978;2023-04-08T10:07:07;100537.81;;;5.31;100.00
59110;BME280;44895;47.438;18.978;2023-04-08T10:10:11;100548.31;;;5.33;100.00
59110;BME280;44895;47.438;18.978;2023-04-08T10:13:15;100542.47;;;5.58;100.00
59110;BME280;44895;47.438;18.978;2023-04-08T10:19:36;100546.31;;;5.06;100.00
59110;BME280;44895;47.438;18.978;2023-04-08T10:22:46;100538.91;;;5.52;100.00
59110;BME280;44895;47.438;18.978;2023-04-08T10:25:51;100545.03;;;5.48;100.00
59110;BME280;44895;47.438;18.978;2023-04-08T10:28:55;100540.03;;;5.57;100.00
59110;BME280;44895;47.438;18.978;2023-04-08T10:31:58;100534.34;;;5.75;100.00
59110;BME280;44895;47.438;18.978;2023-04-08T10:35:03;100536.78;;;5.77;100.00
59110;BME280;44895;47.438;18.978;2023-04-08T10:38:07;100529.44;;;5.50;100.00
59110;BME280;44895;47.438;18.978;2023-04-08T10:41:11;100546.00;;;5.81;100.00
59110;BME280;44895;47.438;18.978;2023-04-08T10:44:24;100533.63;;;6.02;100.00
59110;BME280;44895;47.438;18.978;2023-04-08T10:47:29;100542.56;;;6.08;100.00
59110;BME280;44895;47.438;18.978;2023-04-08T11:03:18;100542.88;;;5.67;100.00
59110;BME280;44895;47.438;18.978;2023-04-08T11:06:22;100545.69;;;5.77;100.00
59110;BME280;44895;47.438;18.978;2023-04-08T11:09:27;100547.53;;;5.54;100.00
59110;BME280;44895;47.438;18.978;2023-04-08T11:12:31;100537.56;;;6.16;100.00
59110;BME280;44895;47.438;18.978;2023-04-08T11:15:36;100542.88;;;6.11;100.00
59110;BME280;44895;47.438;18.978;2023-04-08T11:18:40;100539.88;;;6.08;100.00
59110;BME280;44895;47.438;18.978;2023-04-08T11:21:44;100537.25;;;6.13;100.00
59110;BME280;44895;47.438;18.978;2023-04-08T11:24:48;100544.69;;;5.83;100.00
59110;BME280;44895;47.438;18.978;2023-04-08T11:27:52;100541.16;;;5.61;100.00
59110;BME280;44895;47.438;18.978;2023-04-08T11:30:56;100549.22;;;5.38;100.00
59110;BME280;44895;47.438;18.978;2023-04-08T11:34:00;100549.22;;;5.38;100.00
59110;BME280;44895;47.438;18.978;2023-04-08T11:37:04;100547.78;;;5.31;100.00
59110;BME280;44895;47.438;18.978;2023-04-08T11:40:09;100556.06;;;5.46;100.00
59110;BME280;44895;47.438;18.978;2023-04-08T11:43:12;100556.25;;;5.22;100.00
59110;BME280;44895;47.438;18.978;2023-04-08T11:46:20;100558.50;;;5.48;100.00
59110;BME280;44895;47.438;18.978;2023-04-08T11:49:24;100544.31;;;5.75;100.00
59110;BME280;44895;47.438;18.978;2023-04-08T11:52:49;100549.88;;;6.34;100.00
59110;BME280;44895;47.438;18.978;2023-04-08T11:55:52;100549.16;;;6.44;100.00
59110;BME280;44895;47.438;18.978;2023-04-08T11:58:56;100552.31;;;6.09;100.00
59110;BME280;44895;47.438;18.978;2023-04-08T12:02:00;100545.25;;;5.85;100.00
59110;BME280;44895;47.438;18.978;2023-04-08T12:05:04;100546.91;;;5.86;100.00
59110;BME280;44895;47.438;18.978;2023-04-08T12:08:09;100546.13;;;5.69;100.00
59110;BME280;44895;47.438;18.978;2023-04-08T12:11:12;100545.03;;;5.70;100.00
59110;BME280;44895;47.438;18.978;2023-04-08T12:14:18;100548.53;;;5.48;100.00
59110;BME280;44895;47.438;18.978;2023-04-08T12:17:24;100545.19;;;5.80;100.00
59110;BME280;44895;47.438;18.978;2023-04-08T12:20:28;100552.28;;;5.86;100.00
59110;BME280;44895;47.438;18.978;2023-04-08T12:23:32;100550.97;;;6.11;100.00
59110;BME280;44895;47.438;18.978;2023-04-08T12:26:35;100538.69;;;6.48;100.00
59110;BME280;44895;47.438;18.978;2023-04-08T12:29:39;100540.25;;;6.71;100.00
59110;BME280;44895;47.438;18.978;2023-04-08T12:32:43;100538.06;;;6.13;100.00
59110;BME280;44895;47.438;18.978;2023-04-08T12:35:48;100541.63;;;6.19;100.00
59110;BME280;44895;47.438;18.978;2023-04-08T12:38:51;100544.91;;;6.21;100.00
59110;BME280;44895;47.438;18.978;2023-04-08T12:41:55;100539.91;;;6.35;100.00
59110;BME280;44895;47.438;18.978;2023-04-08T12:44:59;100544.19;;;6.31;100.00
59110;BME280;44895;47.438;18.978;2023-04-08T12:48:03;100542.63;;;6.35;100.00
59110;BME280;44895;47.438;18.978;2023-04-08T12:51:07;100535.63;;;6.39;100.00
59110;BME280;44895;47.438;18.978;2023-04-08T12:54:12;100533.94;;;6.33;100.00
59110;BME280;44895;47.438;18.978;2023-04-08T12:57:16;100542.19;;;6.48;100.00
59110;BME280;44895;47.438;18.978;2023-04-08T13:00:20;100549.66;;;6.14;100.00
59110;BME280;44895;47.438;18.978;2023-04-08T13:03:24;100536.25;;;6.46;100.00
59110;BME280;44895;47.438;18.978;2023-04-08T13:06:29;100547.97;;;6.30;100.00
59110;BME280;44895;47.438;18.978;2023-04-08T13:09:34;100542.31;;;6.31;100.00
59110;BME280;44895;47.438;18.978;2023-04-08T13:12:38;100550.28;;;6.21;100.00
59110;BME280;44895;47.438;18.978;2023-04-08T13:15:43;100537.81;;;6.15;100.00
59110;BME280;44895;47.438;18.978;2023-04-08T13:18:46;100549.03;;;6.07;100.00
59110;BME280;44895;47.438;18.978;2023-04-08T13:21:50;100537.59;;;5.77;100.00
59110;BME280;44895;47.438;18.978;2023-04-08T13:24:54;100538.22;;;6.29;100.00
59110;BME280;44895;47.438;18.978;2023-04-08T13:27:58;100532.31;;;6.59;100.00
59110;BME280;44895;47.438;18.978;2023-04-08T13:31:01;100534.16;;;6.86;100.00
59110;BME280;44895;47.438;18.978;2023-04-08T13:34:05;100537.94;;;6.52;100.00
59110;BME280;44895;47.438;18.978;2023-04-08T13:37:09;100528.59;;;6.65;100.00
59110;BME280;44895;47.438;18.978;2023-04-08T13:40:13;100524.03;;;6.71;100.00
59110;BME280;44895;47.438;18.978;2023-04-08T13:43:16;100524.22;;;6.59;100.00
59110;BME280;44895;47.438;18.978;2023-04-08T13:46:20;100532.72;;;6.73;100.00
59110;BME280;44895;47.438;18.978;2023-04-08T13:49:24;100516.94;;;6.60;100.00
59110;BME280;44895;47.438;18.978;2023-04-08T13:52:28;100510.31;;;7.10;100.00
59110;BME280;44895;47.438;18.978;2023-04-08T13:55:32;100520.38;;;6.82;100.00
59110;BME280;44895;47.438;18.978;2023-04-08T13:58:36;100528.34;;;6.67;100.00
59110;BME280;44895;47.438;18.978;2023-04-08T14:01:40;100525.50;;;6.51;100.00
59110;BME280;44895;47.438;18.978;2023-04-08T14:04:44;100523.28;;;7.08;100.00
59110;BME280;44895;47.438;18.978;2023-04-08T14:07:48;100520.63;;;7.18;100.00
59110;BME280;44895;47.438;18.978;2023-04-08T14:10:54;100519.97;;;7.01;100.00
59110;BME280;44895;47.438;18.978;2023-04-08T14:13:59;100523.75;;;7.00;100.00
59110;BME280;44895;47.438;18.978;2023-04-08T14:17:02;100527.56;;;6.72;100.00
59110;BME280;44895;47.438;18.978;2023-04-08T14:20:06;100527.34;;;7.11;100.00
59110;BME280;44895;47.438;18.978;2023-04-08T14:23:10;100537.34;;;7.15;100.00
59110;BME280;44895;47.438;18.978;2023-04-08T14:26:15;100535.56;;;6.94;100.00
59110;BME280;44895;47.438;18.978;2023-04-08T14:29:19;100534.38;;;6.79;100.00
59110;BME280;44895;47.438;18.978;2023-04-08T14:32:23;100532.03;;;6.88;100.00
59110;BME280;44895;47.438;18.978;2023-04-08T14:35:27;100531.44;;;6.81;100.00
59110;BME280;44895;47.438;18.978;2023-04-08T14:38:31;100538.22;;;6.56;100.00
59110;BME280;44895;47.438;18.978;2023-04-08T14:41:35;100534.44;;;6.57;100.00
59110;BME280;44895;47.438;18.978;2023-04-08T14:44:39;100541.06;;;6.44;100.00
59110;BME280;44895;47.438;18.978;2023-04-08T14:47:43;100533.22;;;6.70;100.00
59110;BME280;44895;47.438;18.978;2023-04-08T14:50:48;100538.84;;;6.36;100.00
59110;BME280;44895;47.438;18.978;2023-04-08T14:53:52;100538.13;;;6.18;100.00
59110;BME280;44895;47.438;18.978;2023-04-08T14:56:55;100531.66;;;6.74;100.00
59110;BME280;44895;47.438;18.978;2023-04-08T14:59:59;100529.53;;;6.81;100.00
59110;BME280;44895;47.438;18.978;2023-04-08T15:03:03;100530.00;;;6.73;100.00
59110;BME280;44895;47.438;18.978;2023-04-08T15:06:06;100525.47;;;6.79;100.00
59110;BME280;44895;47.438;18.978;2023-04-08T15:09:10;100529.13;;;6.35;100.00
59110;BME280;44895;47.438;18.978;2023-04-08T15:12:14;100535.06;;;6.10;100.00
59110;BME280;44895;47.438;18.978;2023-04-08T15:15:18;100539.28;;;6.00;100.00
59110;BME280;44895;47.438;18.978;2023-04-08T15:18:21;100535.53;;;6.29;100.00
59110;BME280;44895;47.438;18.978;2023-04-08T15:21:25;100534.34;;;6.47;100.00
59110;BME280;44895;47.438;18.978;2023-04-08T15:24:29;100535.59;;;6.12;100.00
59110;BME280;44895;47.438;18.978;2023-04-08T15:27:33;100533.22;;;5.93;100.00
59110;BME280;44895;47.438;18.978;2023-04-08T15:30:37;100540.50;;;6.15;100.00
59110;BME280;44895;47.438;18.978;2023-04-08T15:33:41;100534.41;;;6.52;100.00
59110;BME280;44895;47.438;18.978;2023-04-08T15:36:45;100537.38;;;6.50;100.00
59110;BME280;44895;47.438;18.978;2023-04-08T15:39:50;100537.63;;;6.49;100.00
59110;BME280;44895;47.438;18.978;2023-04-08T15:42:56;100546.84;;;6.53;100.00
59110;BME280;44895;47.438;18.978;2023-04-08T15:46:00;100544.94;;;6.53;100.00
59110;BME280;44895;47.438;18.978;2023-04-08T15:49:04;100545.69;;;6.22;100.00
59110;BME280;44895;47.438;18.978;2023-04-08T15:52:08;100549.47;;;6.20;100.00
59110;BME280;44895;47.438;18.978;2023-04-08T15:55:12;100551.34;;;6.20;100.00
59110;BME280;44895;47.438;18.978;2023-04-08T15:58:16;100549.16;;;6.17;100.00
59110;BME280;44895;47.438;18.978;2023-04-08T16:01:20;100544.31;;;6.19;100.00
59110;BME280;44895;47.438;18.978;2023-04-08T16:04:23;100547.38;;;6.28;100.00
59110;BME280;44895;47.438;18.978;2023-04-08T16:07:27;100549.69;;;6.41;100.00
59110;BME280;44895;47.438;18.978;2023-04-08T16:10:30;100555.31;;;6.40;100.00
59110;BME280;44895;47.438;18.978;2023-04-08T16:13:34;100557.44;;;6.10;100.00